createdAt,value
2023-04-26T00:01:19.795Z,99427.59
2023-04-26T00:04:22.701Z,99423.03
2023-04-26T00:07:25.646Z,99432.44
2023-04-26T00:10:27.990Z,99434.41
2023-04-26T00:13:30.365Z,99434.34
2023-04-26T00:16:32.714Z,99430.63
2023-04-26T00:19:35.165Z,99441.47
2023-04-26T00:22:37.737Z,99438.50
2023-04-26T00:25:40.152Z,99447.81
2023-04-26T00:28:42.658Z,99449.28
2023-04-26T00:31:45.031Z,99455.06
2023-04-26T00:34:47.403Z,99452.69
2023-04-26T00:37:49.707Z,99467.53
2023-04-26T00:40:52.131Z,99464.66
2023-04-26T00:43:54.527Z,99457.84
2023-04-26T00:46:57.121Z,99468.66
2023-04-26T00:50:01.124Z,99467.09
2023-04-26T00:53:04.230Z,99464.50
2023-04-26T00:56:08.074Z,99470.72
2023-04-26T00:59:10.423Z,99466.19
2023-04-26T01:02:13.446Z,99471.72
2023-04-26T01:05:15.794Z,99479.69
2023-04-26T01:08:21.311Z,99482.09
2023-04-26T01:11:23.915Z,99478.88
2023-04-26T01:14:27.221Z,99492.97
2023-04-26T01:17:29.917Z,99475.03
2023-04-26T01:20:32.572Z,99490.06
2023-04-26T01:23:37.063Z,99486.00
2023-04-26T01:26:46.718Z,99495.41
2023-04-26T01:29:52.073Z,99488.69
2023-04-26T01:32:54.455Z,99496.91
2023-04-26T01:35:56.913Z,99513.16
2023-04-26T01:38:59.184Z,99506.06
2023-04-26T01:42:03.175Z,99503.47
2023-04-26T01:45:07.813Z,99511.47
2023-04-26T01:48:28.404Z,99519.41
2023-04-26T01:51:30.736Z,99510.66
2023-04-26T01:54:33.095Z,99528.53
2023-04-26T01:57:35.875Z,99542.97
2023-04-26T02:00:38.192Z,99520.78
2023-04-26T02:03:40.882Z,99532.00
2023-04-26T02:06:43.310Z,99540.56
2023-04-26T02:09:46.624Z,99515.19
2023-04-26T02:12:48.884Z,99539.59
2023-04-26T02:15:51.610Z,99533.91
2023-04-26T02:18:54.925Z,99538.25
2023-04-26T02:21:58.501Z,99540.78
2023-04-26T02:25:00.887Z,99539.06
2023-04-26T02:28:06.657Z,99540.09
2023-04-26T02:31:09.369Z,99546.84
2023-04-26T02:34:12.751Z,99557.81
2023-04-26T02:37:15.269Z,99539.84
2023-04-26T02:40:20.688Z,99543.72
2023-04-26T02:43:23.030Z,99524.91
2023-04-26T02:46:25.688Z,99537.53
2023-04-26T02:49:28.195Z,99536.06
2023-04-26T02:52:30.708Z,99548.91
2023-04-26T02:55:33.347Z,99541.91
2023-04-26T02:58:35.899Z,99545.44
2023-04-26T03:01:38.741Z,99555.50
2023-04-26T03:04:42.035Z,99551.44
2023-04-26T03:07:44.411Z,99563.66
2023-04-26T03:10:47.005Z,99569.00
2023-04-26T03:13:49.615Z,99578.63
2023-04-26T03:16:52.403Z,99591.19
2023-04-26T03:19:55.175Z,99584.88
2023-04-26T03:22:57.628Z,99583.47
2023-04-26T03:26:00.289Z,99592.63
2023-04-26T03:29:03.725Z,99585.53
2023-04-26T03:32:07.358Z,99598.41
2023-04-26T03:35:10.595Z,99596.34
2023-04-26T03:38:13.049Z,99597.75
2023-04-26T03:41:16.937Z,99608.84
2023-04-26T03:44:19.734Z,99600.38
2023-04-26T03:47:22.302Z,99610.91
2023-04-26T03:50:25.084Z,99609.28
2023-04-26T03:53:27.666Z,99619.47
2023-04-26T03:56:30.478Z,99611.09
2023-04-26T03:59:33.006Z,99620.66
2023-04-26T04:02:35.520Z,99616.84
2023-04-26T04:05:38.273Z,99628.41
2023-04-26T04:08:40.754Z,99640.72
2023-04-26T04:11:45.153Z,99635.03
2023-04-26T04:14:48.711Z,99637.38
2023-04-26T04:17:51.837Z,99641.84
2023-04-26T04:20:54.198Z,99638.06
2023-04-26T04:23:56.684Z,99640.53
2023-04-26T04:27:01.317Z,99645.56
2023-04-26T04:30:10.093Z,99650.63
2023-04-26T04:33:12.971Z,99655.59
2023-04-26T04:36:17.084Z,99650.25
2023-04-26T04:39:20.794Z,99649.41
2023-04-26T04:42:23.552Z,99668.28
2023-04-26T04:45:27.164Z,99664.28
2023-04-26T04:48:31.126Z,99662.88
2023-04-26T04:51:33.445Z,99674.00
2023-04-26T04:54:35.904Z,99675.75
2023-04-26T04:57:40.637Z,99664.00
2023-04-26T05:00:45.906Z,99675.59
2023-04-26T05:03:56.165Z,99683.47
2023-04-26T05:06:59.472Z,99692.78
2023-04-26T05:10:02.325Z,99704.03
2023-04-26T05:13:06.158Z,99698.94
2023-04-26T05:16:09.017Z,99710.34
2023-04-26T05:19:13.464Z,99698.72
2023-04-26T05:22:18.855Z,99712.03
2023-04-26T05:25:22.551Z,99704.66
2023-04-26T05:28:29.774Z,99706.22
2023-04-26T05:31:52.304Z,99704.88
2023-04-26T05:35:23.823Z,99722.44
2023-04-26T05:38:26.696Z,99716.84
2023-04-26T05:41:29.063Z,99716.38
2023-04-26T05:44:31.485Z,99731.03
2023-04-26T05:47:33.860Z,99719.63
2023-04-26T05:50:38.844Z,99723.25
2023-04-26T05:53:42.756Z,99726.44
2023-04-26T05:56:45.065Z,99732.72
2023-04-26T05:59:47.954Z,99729.06
2023-04-26T06:02:50.639Z,99715.75
2023-04-26T06:05:53.602Z,99723.50
2023-04-26T06:08:57.875Z,99731.38
2023-04-26T06:12:00.203Z,99733.75
2023-04-26T06:15:03.000Z,99722.41
2023-04-26T06:18:07.485Z,99721.66
2023-04-26T06:21:11.283Z,99730.97
2023-04-26T06:24:13.623Z,99733.56
2023-04-26T06:27:15.992Z,99728.97
2023-04-26T06:30:21.936Z,99742.88
2023-04-26T06:33:25.469Z,99728.78
2023-04-26T06:36:28.282Z,99734.72
2023-04-26T06:39:30.981Z,99736.09
2023-04-26T06:42:33.580Z,99727.84
2023-04-26T06:45:48.212Z,99740.59
2023-04-26T06:48:53.943Z,99742.91
2023-04-26T06:51:56.665Z,99731.81
2023-04-26T06:55:13.060Z,99730.09
2023-04-26T06:58:15.394Z,99722.59
2023-04-26T07:01:23.627Z,99730.09
2023-04-26T07:04:26.162Z,99723.56
2023-04-26T07:07:28.678Z,99733.56
2023-04-26T07:10:31.070Z,99731.16
2023-04-26T07:13:34.246Z,99727.38
2023-04-26T07:16:36.645Z,99747.78
2023-04-26T07:19:38.988Z,99746.03
2023-04-26T07:22:41.351Z,99757.88
2023-04-26T07:25:43.639Z,99753.91
2023-04-26T07:28:45.915Z,99750.44
2023-04-26T07:31:49.201Z,99767.66
2023-04-26T07:34:51.787Z,99764.16
2023-04-26T07:37:54.062Z,99769.16
2023-04-26T07:40:56.382Z,99762.28
2023-04-26T07:43:59.247Z,99781.31
2023-04-26T07:47:01.635Z,99788.38
2023-04-26T07:50:04.392Z,99786.88
2023-04-26T07:53:06.713Z,99798.13
2023-04-26T07:56:11.703Z,99776.22
2023-04-26T07:59:13.934Z,99778.13
2023-04-26T08:02:17.386Z,99780.75
2023-04-26T08:05:20.177Z,99782.22
2023-04-26T08:08:23.114Z,99772.28
2023-04-26T08:11:25.435Z,99788.66
2023-04-26T08:14:28.773Z,99790.28
2023-04-26T08:17:37.651Z,99782.00
2023-04-26T08:20:40.127Z,99807.75
2023-04-26T08:23:42.453Z,99809.88
2023-04-26T08:26:44.770Z,99800.91
2023-04-26T08:29:49.503Z,99795.28
2023-04-26T08:32:51.868Z,99801.56
2023-04-26T08:35:54.215Z,99811.56
2023-04-26T08:38:57.723Z,99828.38
2023-04-26T08:42:05.945Z,99800.75
2023-04-26T08:45:08.924Z,99817.81
2023-04-26T08:48:14.967Z,99813.16
2023-04-26T08:51:18.121Z,99811.44
2023-04-26T08:54:20.888Z,99818.91
2023-04-26T08:57:24.299Z,99819.38
2023-04-26T09:00:27.477Z,99804.19
2023-04-26T09:03:30.139Z,99823.31
2023-04-26T09:06:33.472Z,99827.19
2023-04-26T09:09:39.530Z,99832.38
2023-04-26T09:12:41.839Z,99815.56
2023-04-26T09:15:44.177Z,99822.50
2023-04-26T09:18:54.985Z,99830.84
2023-04-26T09:21:57.812Z,99820.19
2023-04-26T09:25:01.109Z,99823.19
2023-04-26T09:28:04.799Z,99819.03
2023-04-26T09:31:07.151Z,99829.88
2023-04-26T09:34:11.614Z,99833.16
2023-04-26T09:37:16.791Z,99825.34
2023-04-26T09:40:20.247Z,99814.81
2023-04-26T09:43:23.142Z,99819.81
2023-04-26T09:46:25.843Z,99809.28
2023-04-26T09:49:50.508Z,99821.38
2023-04-26T09:52:52.944Z,99802.69
2023-04-26T09:55:56.352Z,99820.75
2023-04-26T09:59:00.879Z,99821.09
2023-04-26T10:02:03.819Z,99825.03
2023-04-26T10:05:07.329Z,99810.97
2023-04-26T10:08:10.022Z,99803.84
2023-04-26T10:11:13.133Z,99819.47
2023-04-26T10:14:15.676Z,99821.66
2023-04-26T10:17:19.559Z,99819.16
2023-04-26T10:20:22.900Z,99820.13
2023-04-26T10:23:28.513Z,99818.09
2023-04-26T10:26:53.510Z,99830.84
2023-04-26T10:29:55.856Z,99823.13
2023-04-26T10:32:58.231Z,99819.66
2023-04-26T10:36:04.062Z,99825.78
2023-04-26T10:39:23.444Z,99825.88
2023-04-26T10:42:30.972Z,99821.41
2023-04-26T10:45:33.367Z,99826.06
2023-04-26T10:48:35.702Z,99815.72
2023-04-26T10:51:38.086Z,99824.72
2023-04-26T10:54:59.504Z,99833.75
2023-04-26T10:58:01.732Z,99819.69
2023-04-26T11:01:17.564Z,99823.91
2023-04-26T11:04:20.057Z,99806.38
2023-04-26T11:07:37.974Z,99815.63
2023-04-26T11:10:41.221Z,99806.66
2023-04-26T11:13:44.152Z,99792.22
2023-04-26T11:16:46.653Z,99801.31
2023-04-26T11:19:48.978Z,99796.25
2023-04-26T11:22:51.635Z,99805.09
2023-04-26T11:25:55.157Z,99815.44
2023-04-26T11:28:57.541Z,99805.91
2023-04-26T11:31:59.902Z,99814.69
2023-04-26T11:35:02.349Z,99824.50
2023-04-26T11:38:07.966Z,99822.03
2023-04-26T11:41:11.694Z,99810.44
2023-04-26T11:44:18.728Z,99821.88
2023-04-26T11:47:22.892Z,99837.88
2023-04-26T11:50:26.989Z,99840.31
2023-04-26T11:53:40.707Z,99835.16
2023-04-26T11:56:43.079Z,99826.78
2023-04-26T11:59:45.931Z,99839.47
2023-04-26T12:02:48.956Z,99820.00
2023-04-26T12:05:56.301Z,99844.31
2023-04-26T12:08:58.719Z,99819.25
2023-04-26T12:12:02.240Z,99828.25
2023-04-26T12:15:10.527Z,99833.19
2023-04-26T12:18:13.066Z,99829.41
2023-04-26T12:21:16.071Z,99839.06
2023-04-26T12:24:26.495Z,99832.63
2023-04-26T12:27:28.757Z,99832.09
2023-04-26T12:30:31.384Z,99830.19
2023-04-26T12:33:39.608Z,99841.34
2023-04-26T12:36:44.494Z,99844.56
2023-04-26T12:39:47.185Z,99851.28
2023-04-26T12:42:50.835Z,99860.19
2023-04-26T12:45:53.490Z,99845.66
2023-04-26T12:48:55.827Z,99837.59
2023-04-26T12:51:58.154Z,99862.28
2023-04-26T12:55:00.517Z,99845.91
2023-04-26T12:58:02.919Z,99855.88
2023-04-26T13:01:05.316Z,99836.22
2023-04-26T13:04:07.813Z,99835.41
2023-04-26T13:07:10.395Z,99848.88
2023-04-26T13:10:13.442Z,99833.78
2023-04-26T13:13:16.409Z,99859.34
2023-04-26T13:16:18.831Z,99858.75
2023-04-26T13:19:21.323Z,99853.97
2023-04-26T13:22:23.734Z,99854.78
2023-04-26T13:25:26.076Z,99850.44
2023-04-26T13:28:28.413Z,99850.34
2023-04-26T13:31:31.044Z,99860.84
2023-04-26T13:34:33.310Z,99870.00
2023-04-26T13:37:35.671Z,99864.41
2023-04-26T13:40:37.996Z,99870.88
2023-04-26T13:43:40.368Z,99867.34
2023-04-26T13:46:43.096Z,99858.97
2023-04-26T13:49:45.452Z,99873.50
2023-04-26T13:52:50.100Z,99882.38
2023-04-26T13:55:52.510Z,99869.50
2023-04-26T13:58:56.576Z,99875.72
2023-04-26T14:01:59.520Z,99884.88
2023-04-26T14:05:02.178Z,99881.28
2023-04-26T14:08:04.741Z,99883.09
2023-04-26T14:11:07.977Z,99896.53
2023-04-26T14:14:11.066Z,99907.09
2023-04-26T14:17:13.908Z,99894.22
2023-04-26T14:20:16.276Z,99891.25
2023-04-26T14:23:18.588Z,99902.03
2023-04-26T14:26:20.978Z,99892.31
2023-04-26T14:29:23.311Z,99900.38
2023-04-26T14:32:25.979Z,99888.56
2023-04-26T14:35:28.701Z,99904.16
2023-04-26T14:38:31.519Z,99905.06
2023-04-26T14:41:33.881Z,99897.50
2023-04-26T14:44:37.340Z,99918.53
2023-04-26T14:47:39.734Z,99905.16
2023-04-26T14:50:42.426Z,99911.06
2023-04-26T14:53:44.789Z,99907.78
2023-04-26T14:56:47.116Z,99907.22
2023-04-26T14:59:49.410Z,99911.91
2023-04-26T15:02:51.890Z,99911.91
2023-04-26T15:05:54.364Z,99919.78
2023-04-26T15:08:56.679Z,99925.81
2023-04-26T15:11:58.974Z,99904.00
2023-04-26T15:15:01.340Z,99928.16
2023-04-26T15:18:03.920Z,99928.91
2023-04-26T15:21:06.257Z,99921.03
2023-04-26T15:24:08.792Z,99929.50
2023-04-26T15:27:11.101Z,99927.44
2023-04-26T15:30:13.586Z,99926.94
2023-04-26T15:33:17.244Z,99937.00
2023-04-26T15:36:20.588Z,99943.66
2023-04-26T15:39:22.904Z,99934.44
2023-04-26T15:42:25.234Z,99938.38
2023-04-26T15:45:27.509Z,99934.59
2023-04-26T15:48:29.940Z,99943.25
2023-04-26T15:51:32.348Z,99944.88
2023-04-26T15:54:34.784Z,99931.59
2023-04-26T15:57:37.844Z,99936.06
2023-04-26T16:00:40.251Z,99941.00
2023-04-26T16:03:46.521Z,99941.75
2023-04-26T16:06:49.731Z,99940.38
2023-04-26T16:09:52.625Z,99935.06
2023-04-26T16:12:54.956Z,99943.81
2023-04-26T16:15:57.401Z,99936.44
2023-04-26T16:18:59.702Z,99949.75
2023-04-26T16:22:02.080Z,99935.38
2023-04-26T16:25:06.882Z,99948.56
2023-04-26T16:28:11.762Z,99949.06
2023-04-26T16:31:14.326Z,99946.91
2023-04-26T16:34:17.003Z,99943.59
2023-04-26T16:37:19.357Z,99947.19
2023-04-26T16:40:23.577Z,99951.59
2023-04-26T16:43:30.245Z,99955.72
2023-04-26T16:46:32.707Z,99956.16
2023-04-26T16:49:35.150Z,99975.09
2023-04-26T16:52:37.660Z,99969.03
2023-04-26T16:55:40.010Z,99961.94
2023-04-26T16:58:42.342Z,99978.94
2023-04-26T17:01:44.683Z,99963.47
2023-04-26T17:04:47.509Z,99995.25
2023-04-26T17:07:50.636Z,99994.56
2023-04-26T17:10:53.007Z,99986.13
2023-04-26T17:13:55.451Z,99997.53
2023-04-26T17:16:57.726Z,99999.31
2023-04-26T17:20:00.060Z,100000.31
2023-04-26T17:23:04.212Z,100007.69
2023-04-26T17:26:06.490Z,99999.63
2023-04-26T17:29:08.791Z,100002.09
2023-04-26T17:32:11.439Z,100000.25
2023-04-26T17:35:13.980Z,100019.63
2023-04-26T17:38:16.300Z,100010.41
2023-04-26T17:41:18.815Z,100019.56
2023-04-26T17:44:21.127Z,100018.56
2023-04-26T17:47:23.502Z,100026.91
2023-04-26T17:50:25.827Z,100022.00
2023-04-26T17:53:28.112Z,100025.34
2023-04-26T17:56:30.549Z,100041.91
2023-04-26T17:59:33.065Z,100056.00
2023-04-26T18:02:36.485Z,100046.59
2023-04-26T18:05:38.980Z,100052.84
2023-04-26T18:08:42.019Z,100047.72
2023-04-26T18:11:47.973Z,100060.69
2023-04-26T18:14:51.721Z,100071.94
2023-04-26T18:17:54.020Z,100057.34
2023-04-26T18:20:56.481Z,100064.88
2023-04-26T18:24:00.612Z,100071.13
2023-04-26T18:27:04.707Z,100065.22
2023-04-26T18:30:08.189Z,100069.59
2023-04-26T18:33:10.550Z,100076.06
2023-04-26T18:36:12.904Z,100078.75
2023-04-26T18:39:15.236Z,100078.84
2023-04-26T18:42:17.526Z,100086.28
2023-04-26T18:45:20.066Z,100082.13
2023-04-26T18:48:22.397Z,100095.63
2023-04-26T18:51:25.734Z,100096.09
2023-04-26T18:54:32.198Z,100111.63
2023-04-26T18:57:34.542Z,100113.38
2023-04-26T19:00:37.189Z,100111.28
2023-04-26T19:03:39.620Z,100107.13
2023-04-26T19:06:42.114Z,100114.50
2023-04-26T19:09:53.766Z,100119.31
2023-04-26T19:12:59.641Z,100114.66
2023-04-26T19:16:04.399Z,100116.84
2023-04-26T19:19:06.665Z,100117.09
2023-04-26T19:22:09.064Z,100113.66
2023-04-26T19:25:11.430Z,100124.31
2023-04-26T19:28:13.902Z,100118.56
2023-04-26T19:31:16.192Z,100119.91
2023-04-26T19:34:18.751Z,100126.63
2023-04-26T19:37:21.035Z,100113.63
2023-04-26T19:40:23.319Z,100123.94
2023-04-26T19:43:25.644Z,100130.50
2023-04-26T19:46:27.989Z,100120.25
2023-04-26T19:49:30.323Z,100136.88
2023-04-26T19:52:32.585Z,100134.53
2023-04-26T19:55:34.993Z,100128.59
2023-04-26T19:58:37.681Z,100128.63
2023-04-26T20:01:39.918Z,100143.59
2023-04-26T20:04:42.902Z,100147.19
2023-04-26T20:07:45.187Z,100138.25
2023-04-26T20:10:47.888Z,100155.09
2023-04-26T20:13:50.228Z,100146.94
2023-04-26T20:16:52.546Z,100144.97
2023-04-26T20:19:55.088Z,100160.63
2023-04-26T20:22:57.403Z,100163.25
2023-04-26T20:25:59.695Z,100160.66
2023-04-26T20:29:02.140Z,100166.66
2023-04-26T20:32:04.752Z,100155.97
2023-04-26T20:35:08.410Z,100177.19
2023-04-26T20:38:11.012Z,100168.63
2023-04-26T20:41:13.285Z,100175.19
2023-04-26T20:44:15.687Z,100176.94
2023-04-26T20:47:18.429Z,100171.97
2023-04-26T20:50:20.999Z,100161.06
2023-04-26T20:53:23.280Z,100183.28
2023-04-26T20:56:26.287Z,100158.72
2023-04-26T20:59:28.628Z,100180.91
2023-04-26T21:02:31.155Z,100170.22
2023-04-26T21:05:33.593Z,100176.88
2023-04-26T21:08:36.920Z,100173.09
2023-04-26T21:11:39.461Z,100186.78
2023-04-26T21:14:41.823Z,100197.91
2023-04-26T21:17:44.124Z,100184.75
2023-04-26T21:20:46.487Z,100194.66
2023-04-26T21:23:48.800Z,100184.75
2023-04-26T21:26:51.098Z,100193.75
2023-04-26T21:29:53.550Z,100200.34
2023-04-26T21:32:55.894Z,100200.16
2023-04-26T21:36:00.343Z,100217.19
2023-04-26T21:39:03.612Z,100213.03
2023-04-26T21:42:06.053Z,100206.28
2023-04-26T21:45:08.841Z,100203.19
2023-04-26T21:48:11.421Z,100210.38
2023-04-26T21:51:13.795Z,100216.19
2023-04-26T21:54:16.269Z,100222.69
2023-04-26T21:57:20.301Z,100214.16
2023-04-26T22:00:23.542Z,100224.63
2023-04-26T22:03:26.433Z,100209.31
2023-04-26T22:06:29.177Z,100215.81
2023-04-26T22:09:31.501Z,100214.38
2023-04-26T22:12:33.836Z,100219.50
2023-04-26T22:15:36.534Z,100214.19
2023-04-26T22:18:38.785Z,100206.06
2023-04-26T22:21:41.153Z,100231.03
2023-04-26T22:24:43.453Z,100233.09
2023-04-26T22:27:45.805Z,100241.50
2023-04-26T22:30:48.046Z,100245.56
2023-04-26T22:33:50.407Z,100244.47
2023-04-26T22:36:52.721Z,100251.25
2023-04-26T22:39:56.451Z,100253.16
2023-04-26T22:42:58.773Z,100263.47
2023-04-26T22:46:01.135Z,100268.38
2023-04-26T22:49:03.479Z,100251.25
2023-04-26T22:52:12.087Z,100256.25
2023-04-26T22:55:19.576Z,100257.53
2023-04-26T22:58:21.954Z,100266.53
2023-04-26T23:01:24.350Z,100271.06
2023-04-26T23:04:26.785Z,100269.19
2023-04-26T23:07:29.048Z,100274.25
2023-04-26T23:10:31.384Z,100264.59
2023-04-26T23:13:33.654Z,100271.91
2023-04-26T23:16:36.231Z,100273.56
2023-04-26T23:19:38.513Z,100287.84
2023-04-26T23:22:41.926Z,100280.13
2023-04-26T23:25:44.233Z,100288.34
2023-04-26T23:28:46.647Z,100287.53
2023-04-26T23:31:49.008Z,100284.28
2023-04-26T23:34:51.413Z,100294.53
2023-04-26T23:37:53.796Z,100303.06
2023-04-26T23:40:56.278Z,100293.09
2023-04-26T23:43:58.568Z,100291.03
2023-04-26T23:47:00.937Z,100301.25
2023-04-26T23:50:03.469Z,100296.59
2023-04-26T23:53:05.772Z,100290.44
2023-04-26T23:56:08.093Z,100297.34
2023-04-26T23:59:10.538Z,100290.03
